CheckWX is a tool to help pilots better visualize weather data.  It is not intended as a substitute for an official pre-flight weather briefing.

17:42:24 UTC

KBOK METAR
Brookings Airport
Brookings, Oregon, USA
Current

27 mins ago

KBOK 211715Z AUTO 23003KT 1SM BR OVC002 13/12 A3000 RMK AO2 VIS 1/2V5
Observed
Jul-21 @ 17:15 UTC
Wind
  • 230° at 3 KTS
Visibility
1 SM
Flight Rules
LIFR
Conditions
Mist
Cloud Levels
  • Overcast at 200' AGL
Temperature
13°C / 55°F
Dewpoint
12°C / 54°F
Humidity
94%
Altimeter
30" Hg
Pressure
1015.92 hPa
Previous

46 mins ago

KBOK 211656Z AUTO 23004KT 1 1/2SM BR OVC004 13/11 A3000 RMK AO2 VIS 1/2V5 SLP159 T01280111
Observed
Jul-21 @ 16:56 UTC
Wind
  • 230° at 4 KTS
Visibility
1 1/2 SM
Flight Rules
LIFR
Conditions
Mist
Cloud Levels
  • Overcast at 400' AGL
Temperature
13°C / 55°F
Dewpoint
11°C / 52°F
Humidity
88%
Altimeter
30" Hg
Pressure
1015.92 hPa
Previous

2 hours ago

KBOK 211556Z AUTO 00000KT 10SM OVC004 13/12 A3000 RMK AO2 SLP158 T01330117
Observed
Jul-21 @ 15:56 UTC
Visibility
10 SM
Flight Rules
LIFR
Cloud Levels
  • Overcast at 400' AGL
Temperature
13°C / 55°F
Dewpoint
12°C / 54°F
Humidity
94%
Altimeter
30" Hg
Pressure
1015.92 hPa